This is the latest recevied weather packets stored in our database for station/object SA3PJN-WX. If no packets are shown the sender has not sent any weather packets the latest 10 day(s).
| Time | Temp. | Humidity | Pressure | Rain* | Wind** | Luminosity | Snow |
|---|---|---|---|---|---|---|---|
| 1778310442 | 12.22° C | 50% | 975.6 hPa | - | - | - | - |
| 1778310142 | 13.33° C | 50% | 975.9 hPa | - | - | - | - |
| 1778309842 | 12.78° C | 49% | 975.6 hPa | - | - | - | - |
| 1778309512 | 13.33° C | 50% | 975.8 hPa | - | - | - | - |
| 1778309212 | 11.67° C | 50% | 975.6 hPa | - | - | - | - |
| 1778308912 | 12.22° C | 50% | 975.6 hPa | - | - | - | - |
| 1778308582 | 12.22° C | 51% | 975.7 hPa | - | - | - | - |
| 1778308282 | 11.67° C | 51% | 975.6 hPa | - | - | - | - |
| 1778307982 | 11.11° C | 52% | 975.6 hPa | - | - | - | - |
| 1778307682 | 11.11° C | 52% | 975.6 hPa | - | - | - | - |
| 1778307382 | 11.67° C | 52% | 975.6 hPa | - | - | - | - |
| 1778307082 | 11.11° C | 52% | 975.6 hPa | - | - | - | - |
| 1778306752 | 12.22° C | 50% | 975.7 hPa | - | - | - | - |
| 1778306452 | 12.22° C | 51% | 975.7 hPa | - | - | - | - |
| 1778306122 | 11.67° C | 51% | 975.7 hPa | - | - | - | - |
| 1778305822 | 11.67° C | 53% | 975.7 hPa | - | - | - | - |
| 1778305522 | 10.56° C | 54% | 975.7 hPa | - | - | - | - |
| 1778305222 | 9.44° C | 56% | 975.7 hPa | - | - | - | - |
| 1778304892 | 9.44° C | 54% | 975.7 hPa | - | - | - | - |
| 1778304592 | 9.44° C | 53% | 975.7 hPa | - | - | - | - |
| 1778304262 | 10° C | 52% | 975.6 hPa | - | - | - | - |
| 1778303932 | 11.11° C | 50% | 975.8 hPa | - | - | - | - |
| 1778303632 | 11.67° C | 49% | 975.8 hPa | - | - | - | - |
| 1778303332 | 12.22° C | 48% | 975.8 hPa | - | - | - | - |
| 1778303032 | 12.22° C | 48% | 975.7 hPa | - | - | - | - |
* Rain since midnight (hover to see other rain measurements)
** Current wind speed in m/s (hover to see current wind gust speed)